sensor_id;sensor_type;location;lat;lon;timestamp;pressure;altitude;pressure_sealevel;temperature
11926;BMP180;6022;48.768;18.608;2024-02-14T00:00:14;98870.97;;;1.63
11926;BMP180;6022;48.768;18.608;2024-02-14T00:02:46;98869.19;;;1.68
11926;BMP180;6022;48.768;18.608;2024-02-14T00:05:17;98872.47;;;1.70
11926;BMP180;6022;48.768;18.608;2024-02-14T00:07:46;98869.13;;;1.71
11926;BMP180;6022;48.768;18.608;2024-02-14T00:10:14;98862.47;;;1.70
11926;BMP180;6022;48.768;18.608;2024-02-14T00:12:43;98864.06;;;1.74
11926;BMP180;6022;48.768;18.608;2024-02-14T00:15:12;98865.06;;;1.67
11926;BMP180;6022;48.768;18.608;2024-02-14T00:17:40;98867.47;;;1.70
11926;BMP180;6022;48.768;18.608;2024-02-14T00:20:09;98857.53;;;1.69
11926;BMP180;6022;48.768;18.608;2024-02-14T00:22:40;98864.25;;;1.65
11926;BMP180;6022;48.768;18.608;2024-02-14T00:25:09;98860.25;;;1.58
11926;BMP180;6022;48.768;18.608;2024-02-14T00:27:38;98874.41;;;1.59
11926;BMP180;6022;48.768;18.608;2024-02-14T00:30:10;98881.03;;;1.60
11926;BMP180;6022;48.768;18.608;2024-02-14T00:32:38;98882.75;;;1.57
11926;BMP180;6022;48.768;18.608;2024-02-14T00:35:07;98872.09;;;1.49
11926;BMP180;6022;48.768;18.608;2024-02-14T00:37:35;98875.47;;;1.48
11926;BMP180;6022;48.768;18.608;2024-02-14T00:40:03;98868.94;;;1.41
11926;BMP180;6022;48.768;18.608;2024-02-14T00:42:32;98880.63;;;1.41
11926;BMP180;6022;48.768;18.608;2024-02-14T00:45:01;98873.22;;;1.35
11926;BMP180;6022;48.768;18.608;2024-02-14T00:47:33;98878.31;;;1.32
11926;BMP180;6022;48.768;18.608;2024-02-14T00:50:02;98889.22;;;1.28
11926;BMP180;6022;48.768;18.608;2024-02-14T00:52:31;98881.78;;;1.25
11926;BMP180;6022;48.768;18.608;2024-02-14T00:55:00;98880.16;;;1.24
11926;BMP180;6022;48.768;18.608;2024-02-14T00:57:32;98885.06;;;1.27
11926;BMP180;6022;48.768;18.608;2024-02-14T01:00:00;98880.91;;;1.27
11926;BMP180;6022;48.768;18.608;2024-02-14T01:02:29;98886.72;;;1.28
11926;BMP180;6022;48.768;18.608;2024-02-14T01:04:58;98886.91;;;1.19
11926;BMP180;6022;48.768;18.608;2024-02-14T01:07:26;98888.56;;;1.20
11926;BMP180;6022;48.768;18.608;2024-02-14T01:09:55;98885.47;;;1.06
11926;BMP180;6022;48.768;18.608;2024-02-14T01:12:25;98884.69;;;1.04
11926;BMP180;6022;48.768;18.608;2024-02-14T01:14:54;98893.84;;;1.05
11926;BMP180;6022;48.768;18.608;2024-02-14T01:17:22;98893.75;;;1.08
11926;BMP180;6022;48.768;18.608;2024-02-14T01:19:50;98895.34;;;1.12
11926;BMP180;6022;48.768;18.608;2024-02-14T01:22:19;98888.06;;;1.02
11926;BMP180;6022;48.768;18.608;2024-02-14T01:24:47;98889.78;;;0.98
11926;BMP180;6022;48.768;18.608;2024-02-14T01:27:16;98899.75;;;1.01
11926;BMP180;6022;48.768;18.608;2024-02-14T01:29:44;98885.72;;;0.94
11926;BMP180;6022;48.768;18.608;2024-02-14T01:32:13;98891.47;;;0.98
11926;BMP180;6022;48.768;18.608;2024-02-14T01:34:40;98889.00;;;0.96
11926;BMP180;6022;48.768;18.608;2024-02-14T01:37:10;98895.63;;;0.97
11926;BMP180;6022;48.768;18.608;2024-02-14T01:39:38;98898.19;;;0.94
11926;BMP180;6022;48.768;18.608;2024-02-14T01:42:07;98894.13;;;0.90
11926;BMP180;6022;48.768;18.608;2024-02-14T01:44:35;98889.28;;;0.81
11926;BMP180;6022;48.768;18.608;2024-02-14T01:47:05;98893.53;;;0.76
11926;BMP180;6022;48.768;18.608;2024-02-14T01:49:35;98892.59;;;0.80
11926;BMP180;6022;48.768;18.608;2024-02-14T01:52:04;98886.06;;;0.75
11926;BMP180;6022;48.768;18.608;2024-02-14T01:54:34;98888.63;;;0.71
11926;BMP180;6022;48.768;18.608;2024-02-14T01:57:04;98881.97;;;0.71
11926;BMP180;6022;48.768;18.608;2024-02-14T01:59:34;98876.25;;;0.65
11926;BMP180;6022;48.768;18.608;2024-02-14T02:02:04;98873.09;;;0.57
11926;BMP180;6022;48.768;18.608;2024-02-14T02:04:36;98871.50;;;0.51
11926;BMP180;6022;48.768;18.608;2024-02-14T02:07:05;98879.66;;;0.61
11926;BMP180;6022;48.768;18.608;2024-02-14T02:09:35;98879.56;;;0.65
11926;BMP180;6022;48.768;18.608;2024-02-14T02:12:03;98871.28;;;0.65
11926;BMP180;6022;48.768;18.608;2024-02-14T02:14:35;98871.16;;;0.71
11926;BMP180;6022;48.768;18.608;2024-02-14T02:17:04;98875.25;;;0.74
11926;BMP180;6022;48.768;18.608;2024-02-14T02:19:35;98872.28;;;0.55
11926;BMP180;6022;48.768;18.608;2024-02-14T02:22:04;98876.38;;;0.59
11926;BMP180;6022;48.768;18.608;2024-02-14T02:24:32;98876.47;;;0.53
11926;BMP180;6022;48.768;18.608;2024-02-14T02:27:02;98873.19;;;0.51
11926;BMP180;6022;48.768;18.608;2024-02-14T02:29:31;98873.19;;;0.51
11926;BMP180;6022;48.768;18.608;2024-02-14T02:32:00;98878.19;;;0.51
11926;BMP180;6022;48.768;18.608;2024-02-14T02:34:29;98886.47;;;0.53
11926;BMP180;6022;48.768;18.608;2024-02-14T02:36:58;98884.00;;;0.51
11926;BMP180;6022;48.768;18.608;2024-02-14T02:39:26;98888.09;;;0.54
11926;BMP180;6022;48.768;18.608;2024-02-14T02:41:55;98883.97;;;0.54
11926;BMP180;6022;48.768;18.608;2024-02-14T02:44:25;98884.91;;;0.46
11926;BMP180;6022;48.768;18.608;2024-02-14T02:46:54;98886.63;;;0.44
11926;BMP180;6022;48.768;18.608;2024-02-14T02:49:24;98887.50;;;0.40
11926;BMP180;6022;48.768;18.608;2024-02-14T02:51:53;98895.84;;;0.39
11926;BMP180;6022;48.768;18.608;2024-02-14T02:54:21;98898.31;;;0.39
11926;BMP180;6022;48.768;18.608;2024-02-14T02:56:51;98900.09;;;0.34
11926;BMP180;6022;48.768;18.608;2024-02-14T02:59:19;98892.66;;;0.30
11926;BMP180;6022;48.768;18.608;2024-02-14T03:01:48;98900.09;;;0.33
11926;BMP180;6022;48.768;18.608;2024-02-14T03:04:17;98895.94;;;0.32
11926;BMP180;6022;48.768;18.608;2024-02-14T03:06:47;98901.13;;;0.21
11926;BMP180;6022;48.768;18.608;2024-02-14T03:09:15;98898.63;;;0.21
11926;BMP180;6022;48.768;18.608;2024-02-14T03:11:48;98900.34;;;0.16
11926;BMP180;6022;48.768;18.608;2024-02-14T03:14:17;98901.16;;;0.17
11926;BMP180;6022;48.768;18.608;2024-02-14T03:16:45;98904.56;;;0.13
11926;BMP180;6022;48.768;18.608;2024-02-14T03:19:13;98897.13;;;0.11
11926;BMP180;6022;48.768;18.608;2024-02-14T03:21:44;98898.75;;;0.12
11926;BMP180;6022;48.768;18.608;2024-02-14T03:24:13;98898.72;;;0.15
11926;BMP180;6022;48.768;18.608;2024-02-14T03:26:43;98898.72;;;0.15
11926;BMP180;6022;48.768;18.608;2024-02-14T03:29:13;98903.75;;;0.12
11926;BMP180;6022;48.768;18.608;2024-02-14T03:31:41;98902.94;;;0.12
11926;BMP180;6022;48.768;18.608;2024-02-14T03:34:11;98903.72;;;0.14
11926;BMP180;6022;48.768;18.608;2024-02-14T03:36:40;98896.25;;;0.14
11926;BMP180;6022;48.768;18.608;2024-02-14T03:39:08;98908.69;;;0.15
11926;BMP180;6022;48.768;18.608;2024-02-14T03:41:40;98911.16;;;0.17
11926;BMP180;6022;48.768;18.608;2024-02-14T03:44:08;98913.13;;;-0.03
11926;BMP180;6022;48.768;18.608;2024-02-14T03:46:37;98915.63;;;-0.04
11926;BMP180;6022;48.768;18.608;2024-02-14T03:49:07;98921.50;;;-0.08
11926;BMP180;6022;48.768;18.608;2024-02-14T03:51:36;98915.00;;;-0.17
11926;BMP180;6022;48.768;18.608;2024-02-14T03:54:04;98922.41;;;-0.14
11926;BMP180;6022;48.768;18.608;2024-02-14T03:56:35;98929.88;;;-0.12
11926;BMP180;6022;48.768;18.608;2024-02-14T03:59:04;98924.09;;;-0.14
11926;BMP180;6022;48.768;18.608;2024-02-14T04:01:34;98927.41;;;-0.15
11926;BMP180;6022;48.768;18.608;2024-02-14T04:04:02;98942.38;;;-0.15
11926;BMP180;6022;48.768;18.608;2024-02-14T04:06:30;98946.44;;;-0.08
11926;BMP180;6022;48.768;18.608;2024-02-14T04:09:00;98939.78;;;-0.08
11926;BMP180;6022;48.768;18.608;2024-02-14T04:11:28;98945.66;;;-0.13
11926;BMP180;6022;48.768;18.608;2024-02-14T04:13:56;98941.63;;;-0.20
11926;BMP180;6022;48.768;18.608;2024-02-14T04:16:25;98937.47;;;-0.21
11926;BMP180;6022;48.768;18.608;2024-02-14T04:18:53;98946.56;;;-0.19
11926;BMP180;6022;48.768;18.608;2024-02-14T04:21:24;98948.22;;;-0.18
11926;BMP180;6022;48.768;18.608;2024-02-14T04:23:52;98962.28;;;-0.12
11926;BMP180;6022;48.768;18.608;2024-02-14T04:26:21;98954.00;;;-0.14
11926;BMP180;6022;48.768;18.608;2024-02-14T04:28:50;98949.81;;;-0.12
11926;BMP180;6022;48.768;18.608;2024-02-14T04:31:17;98965.59;;;-0.13
11926;BMP180;6022;48.768;18.608;2024-02-14T04:33:46;98961.59;;;-0.22
11926;BMP180;6022;48.768;18.608;2024-02-14T04:36:20;98964.91;;;-0.23
11926;BMP180;6022;48.768;18.608;2024-02-14T04:38:50;98958.41;;;-0.33
11926;BMP180;6022;48.768;18.608;2024-02-14T04:41:19;98973.53;;;-0.47
11926;BMP180;6022;48.768;18.608;2024-02-14T04:43:49;98976.03;;;-0.49
11926;BMP180;6022;48.768;18.608;2024-02-14T04:46:17;98978.59;;;-0.53
11926;BMP180;6022;48.768;18.608;2024-02-14T04:48:45;98970.22;;;-0.51
11926;BMP180;6022;48.768;18.608;2024-02-14T04:51:13;98972.72;;;-0.51
11926;BMP180;6022;48.768;18.608;2024-02-14T04:53:42;98966.03;;;-0.46
11926;BMP180;6022;48.768;18.608;2024-02-14T04:56:11;98971.03;;;-0.49
11926;BMP180;6022;48.768;18.608;2024-02-14T04:58:39;98981.00;;;-0.47
11926;BMP180;6022;48.768;18.608;2024-02-14T05:01:07;98981.00;;;-0.49
11926;BMP180;6022;48.768;18.608;2024-02-14T05:03:35;98976.81;;;-0.45
11926;BMP180;6022;48.768;18.608;2024-02-14T05:06:04;98981.78;;;-0.44
11926;BMP180;6022;48.768;18.608;2024-02-14T05:08:33;98984.28;;;-0.45
11926;BMP180;6022;48.768;18.608;2024-02-14T05:11:04;98975.19;;;-0.48
11926;BMP180;6022;48.768;18.608;2024-02-14T05:13:35;98989.28;;;-0.47
11926;BMP180;6022;48.768;18.608;2024-02-14T05:16:05;98980.28;;;-0.58
11926;BMP180;6022;48.768;18.608;2024-02-14T05:18:38;98978.66;;;-0.62
11926;BMP180;6022;48.768;18.608;2024-02-14T05:21:07;98975.44;;;-0.70
11926;BMP180;6022;48.768;18.608;2024-02-14T05:23:35;98982.91;;;-0.67
11926;BMP180;6022;48.768;18.608;2024-02-14T05:26:04;98980.38;;;-0.66
11926;BMP180;6022;48.768;18.608;2024-02-14T05:28:32;98985.34;;;-0.66
11926;BMP180;6022;48.768;18.608;2024-02-14T05:31:02;98983.66;;;-0.61
11926;BMP180;6022;48.768;18.608;2024-02-14T05:33:31;98981.94;;;-0.57
11926;BMP180;6022;48.768;18.608;2024-02-14T05:35:59;98978.59;;;-0.56
11926;BMP180;6022;48.768;18.608;2024-02-14T05:38:28;98980.34;;;-0.63
11926;BMP180;6022;48.768;18.608;2024-02-14T05:41:01;98982.06;;;-0.68
11926;BMP180;6022;48.768;18.608;2024-02-14T05:43:29;98992.06;;;-0.69
11926;BMP180;6022;48.768;18.608;2024-02-14T05:45:57;98994.56;;;-0.72
11926;BMP180;6022;48.768;18.608;2024-02-14T05:48:24;98989.56;;;-0.71
11926;BMP180;6022;48.768;18.608;2024-02-14T05:50:53;99001.16;;;-0.70
11926;BMP180;6022;48.768;18.608;2024-02-14T05:53:20;98997.88;;;-0.70
11926;BMP180;6022;48.768;18.608;2024-02-14T05:55:48;98995.44;;;-0.75
11926;BMP180;6022;48.768;18.608;2024-02-14T05:58:16;98990.50;;;-0.80
11926;BMP180;6022;48.768;18.608;2024-02-14T06:00:44;98991.34;;;-0.84
11926;BMP180;6022;48.768;18.608;2024-02-14T06:03:12;98993.09;;;-0.89
11926;BMP180;6022;48.768;18.608;2024-02-14T06:05:40;99000.50;;;-0.83
11926;BMP180;6022;48.768;18.608;2024-02-14T06:08:08;99002.13;;;-0.81
11926;BMP180;6022;48.768;18.608;2024-02-14T06:10:36;99007.06;;;-0.76
11926;BMP180;6022;48.768;18.608;2024-02-14T06:13:06;99012.88;;;-0.77
11926;BMP180;6022;48.768;18.608;2024-02-14T06:15:33;99007.81;;;-0.69
11926;BMP180;6022;48.768;18.608;2024-02-14T06:18:01;99016.03;;;-0.61
11926;BMP180;6022;48.768;18.608;2024-02-14T06:20:29;99016.84;;;-0.59
11926;BMP180;6022;48.768;18.608;2024-02-14T06:22:56;99025.09;;;-0.54
11926;BMP180;6022;48.768;18.608;2024-02-14T06:25:32;99024.97;;;-0.43
11926;BMP180;6022;48.768;18.608;2024-02-14T06:28:00;99035.59;;;-0.28
11926;BMP180;6022;48.768;18.608;2024-02-14T06:30:28;99031.28;;;-0.16
11926;BMP180;6022;48.768;18.608;2024-02-14T06:32:59;99038.59;;;-0.01
11926;BMP180;6022;48.768;18.608;2024-02-14T06:35:30;99040.13;;;0.10
11926;BMP180;6022;48.768;18.608;2024-02-14T06:37:58;99040.84;;;0.17
11926;BMP180;6022;48.768;18.608;2024-02-14T06:40:34;99039.94;;;0.24
11926;BMP180;6022;48.768;18.608;2024-02-14T06:43:05;99043.19;;;0.29
11926;BMP180;6022;48.768;18.608;2024-02-14T06:45:38;99049.81;;;0.31
11926;BMP180;6022;48.768;18.608;2024-02-14T06:48:07;99048.91;;;0.38
11926;BMP180;6022;48.768;18.608;2024-02-14T06:50:36;99044.59;;;0.49
11926;BMP180;6022;48.768;18.608;2024-02-14T06:53:04;99051.09;;;0.57
11926;BMP180;6022;48.768;18.608;2024-02-14T06:55:34;99047.94;;;0.45
11926;BMP180;6022;48.768;18.608;2024-02-14T06:58:02;99044.72;;;0.38
11926;BMP180;6022;48.768;18.608;2024-02-14T07:00:33;99049.41;;;0.58
11926;BMP180;6022;48.768;18.608;2024-02-14T07:03:01;99043.28;;;0.79
11926;BMP180;6022;48.768;18.608;2024-02-14T07:05:28;99042.22;;;0.94
11926;BMP180;6022;48.768;18.608;2024-02-14T07:07:56;99050.16;;;1.18
11926;BMP180;6022;48.768;18.608;2024-02-14T07:10:24;99057.91;;;1.49
11926;BMP180;6022;48.768;18.608;2024-02-14T07:12:51;99057.34;;;1.79
11926;BMP180;6022;48.768;18.608;2024-02-14T07:15:19;99058.63;;;1.98
11926;BMP180;6022;48.768;18.608;2024-02-14T07:17:47;99058.16;;;2.22
11926;BMP180;6022;48.768;18.608;2024-02-14T07:20:15;99057.56;;;2.48
11926;BMP180;6022;48.768;18.608;2024-02-14T07:22:45;99054.84;;;2.59
11926;BMP180;6022;48.768;18.608;2024-02-14T07:25:14;99059.75;;;2.63
11926;BMP180;6022;48.768;18.608;2024-02-14T07:27:49;99069.03;;;2.58
11926;BMP180;6022;48.768;18.608;2024-02-14T07:30:17;99072.31;;;2.60
11926;BMP180;6022;48.768;18.608;2024-02-14T07:32:45;99066.53;;;2.58
11926;BMP180;6022;48.768;18.608;2024-02-14T07:35:14;99069.00;;;2.60
11926;BMP180;6022;48.768;18.608;2024-02-14T07:37:42;99072.28;;;2.63
11926;BMP180;6022;48.768;18.608;2024-02-14T07:40:11;99072.22;;;2.66
11926;BMP180;6022;48.768;18.608;2024-02-14T07:42:42;99080.53;;;2.68
11926;BMP180;6022;48.768;18.608;2024-02-14T07:45:10;99072.22;;;2.66
11926;BMP180;6022;48.768;18.608;2024-02-14T07:47:38;99079.13;;;2.55
11926;BMP180;6022;48.768;18.608;2024-02-14T07:50:08;99079.25;;;2.49
11926;BMP180;6022;48.768;18.608;2024-02-14T07:52:36;99070.88;;;2.50
11926;BMP180;6022;48.768;18.608;2024-02-14T07:55:04;99075.50;;;2.68
11926;BMP180;6022;48.768;18.608;2024-02-14T07:57:32;99072.66;;;3.17
11926;BMP180;6022;48.768;18.608;2024-02-14T08:00:00;99075.75;;;3.60
11926;BMP180;6022;48.768;18.608;2024-02-14T08:02:27;99079.47;;;4.07
11926;BMP180;6022;48.768;18.608;2024-02-14T08:04:59;99079.16;;;4.48
11926;BMP180;6022;48.768;18.608;2024-02-14T08:07:27;99071.56;;;4.76
11926;BMP180;6022;48.768;18.608;2024-02-14T08:09:57;99066.94;;;5.16
11926;BMP180;6022;48.768;18.608;2024-02-14T08:12:26;99068.81;;;5.59
11926;BMP180;6022;48.768;18.608;2024-02-14T08:14:54;99067.06;;;6.09
11926;BMP180;6022;48.768;18.608;2024-02-14T08:17:23;99068.88;;;6.73
11926;BMP180;6022;48.768;18.608;2024-02-14T08:19:52;99071.91;;;7.02
11926;BMP180;6022;48.768;18.608;2024-02-14T08:22:20;99075.22;;;7.64
11926;BMP180;6022;48.768;18.608;2024-02-14T08:24:49;99075.81;;;8.09
11926;BMP180;6022;48.768;18.608;2024-02-14T08:27:18;99078.31;;;8.28
11926;BMP180;6022;48.768;18.608;2024-02-14T08:29:46;99073.03;;;8.51
11926;BMP180;6022;48.768;18.608;2024-02-14T08:32:14;99069.00;;;8.66
11926;BMP180;6022;48.768;18.608;2024-02-14T08:34:41;99063.38;;;8.77
11926;BMP180;6022;48.768;18.608;2024-02-14T08:37:09;99069.31;;;8.95
11926;BMP180;6022;48.768;18.608;2024-02-14T08:39:37;99068.94;;;9.02
11926;BMP180;6022;48.768;18.608;2024-02-14T08:42:05;99070.91;;;9.14
11926;BMP180;6022;48.768;18.608;2024-02-14T08:44:35;99059.31;;;9.27
11926;BMP180;6022;48.768;18.608;2024-02-14T08:47:06;99071.75;;;9.31
11926;BMP180;6022;48.768;18.608;2024-02-14T08:49:33;99063.34;;;9.31
11926;BMP180;6022;48.768;18.608;2024-02-14T08:52:01;99073.53;;;9.29
11926;BMP180;6022;48.768;18.608;2024-02-14T08:54:31;99064.28;;;9.45
11926;BMP180;6022;48.768;18.608;2024-02-14T08:57:01;99057.53;;;9.62
11926;BMP180;6022;48.768;18.608;2024-02-14T08:59:31;99064.19;;;9.80
11926;BMP180;6022;48.768;18.608;2024-02-14T09:01:58;99055.41;;;9.87
11926;BMP180;6022;48.768;18.608;2024-02-14T09:04:26;99062.66;;;9.78
11926;BMP180;6022;48.768;18.608;2024-02-14T09:06:54;99058.16;;;9.82
11926;BMP180;6022;48.768;18.608;2024-02-14T09:09:22;99050.84;;;9.77
11926;BMP180;6022;48.768;18.608;2024-02-14T09:11:50;99045.34;;;9.85
11926;BMP180;6022;48.768;18.608;2024-02-14T09:14:18;99052.63;;;10.08
11926;BMP180;6022;48.768;18.608;2024-02-14T09:16:46;99055.00;;;10.11
11926;BMP180;6022;48.768;18.608;2024-02-14T09:19:15;99058.03;;;10.33
11926;BMP180;6022;48.768;18.608;2024-02-14T09:21:44;99053.50;;;10.39
11926;BMP180;6022;48.768;18.608;2024-02-14T09:24:12;99061.31;;;10.35
11926;BMP180;6022;48.768;18.608;2024-02-14T09:26:40;99056.69;;;10.43
11926;BMP180;6022;48.768;18.608;2024-02-14T09:29:10;99064.31;;;10.43
11926;BMP180;6022;48.768;18.608;2024-02-14T09:31:38;99058.72;;;10.52
11926;BMP180;6022;48.768;18.608;2024-02-14T09:34:06;99062.66;;;10.42
11926;BMP180;6022;48.768;18.608;2024-02-14T09:36:38;99063.91;;;10.50
11926;BMP180;6022;48.768;18.608;2024-02-14T09:39:06;99059.38;;;10.70
11926;BMP180;6022;48.768;18.608;2024-02-14T09:41:42;99063.97;;;10.79
11926;BMP180;6022;48.768;18.608;2024-02-14T09:44:11;99055.13;;;10.55
11926;BMP180;6022;48.768;18.608;2024-02-14T09:46:39;99065.59;;;10.50
11926;BMP180;6022;48.768;18.608;2024-02-14T09:49:09;99060.22;;;10.71
11926;BMP180;6022;48.768;18.608;2024-02-14T09:51:38;99054.44;;;10.98
11926;BMP180;6022;48.768;18.608;2024-02-14T09:54:08;99051.16;;;10.96
11926;BMP180;6022;48.768;18.608;2024-02-14T09:56:36;99051.84;;;11.44
11926;BMP180;6022;48.768;18.608;2024-02-14T09:59:05;99052.88;;;11.55
11926;BMP180;6022;48.768;18.608;2024-02-14T10:01:35;99045.91;;;11.86
11926;BMP180;6022;48.768;18.608;2024-02-14T10:04:04;99044.56;;;11.95
11926;BMP180;6022;48.768;18.608;2024-02-14T10:06:31;99046.28;;;11.94
11926;BMP180;6022;48.768;18.608;2024-02-14T10:09:01;99050.44;;;12.09
11926;BMP180;6022;48.768;18.608;2024-02-14T10:11:35;99056.53;;;12.07
11926;BMP180;6022;48.768;18.608;2024-02-14T10:14:07;99045.47;;;12.07
11926;BMP180;6022;48.768;18.608;2024-02-14T10:16:37;99045.19;;;11.84
11926;BMP180;6022;48.768;18.608;2024-02-14T10:19:04;99044.72;;;11.78
11926;BMP180;6022;48.768;18.608;2024-02-14T10:21:35;99040.09;;;11.84
11926;BMP180;6022;48.768;18.608;2024-02-14T10:24:04;99038.19;;;11.88
11926;BMP180;6022;48.768;18.608;2024-02-14T10:26:32;99039.13;;;11.87
11926;BMP180;6022;48.768;18.608;2024-02-14T10:29:00;99037.47;;;11.72
11926;BMP180;6022;48.768;18.608;2024-02-14T10:31:27;99035.09;;;11.69
11926;BMP180;6022;48.768;18.608;2024-02-14T10:33:55;99041.34;;;11.64
11926;BMP180;6022;48.768;18.608;2024-02-14T10:36:25;99037.41;;;11.58
11926;BMP180;6022;48.768;18.608;2024-02-14T10:38:54;99039.63;;;11.64
11926;BMP180;6022;48.768;18.608;2024-02-14T10:41:24;99033.25;;;11.57
11926;BMP180;6022;48.768;18.608;2024-02-14T10:43:52;99027.22;;;11.15
11926;BMP180;6022;48.768;18.608;2024-02-14T10:46:22;99024.47;;;10.89
11926;BMP180;6022;48.768;18.608;2024-02-14T10:48:58;99018.09;;;10.97
11926;BMP180;6022;48.768;18.608;2024-02-14T10:51:33;99016.22;;;11.01
11926;BMP180;6022;48.768;18.608;2024-02-14T10:54:10;99016.59;;;11.09
11926;BMP180;6022;48.768;18.608;2024-02-14T10:56:50;99012.28;;;11.25
11926;BMP180;6022;48.768;18.608;2024-02-14T10:59:21;99013.00;;;11.27
11926;BMP180;6022;48.768;18.608;2024-02-14T11:01:52;99010.47;;;11.27
11926;BMP180;6022;48.768;18.608;2024-02-14T11:04:20;99015.38;;;11.30
11926;BMP180;6022;48.768;18.608;2024-02-14T11:06:52;99022.53;;;11.52
11926;BMP180;6022;48.768;18.608;2024-02-14T11:09:41;99007.13;;;11.69
11926;BMP180;6022;48.768;18.608;2024-02-14T11:12:10;99002.94;;;11.96
11926;BMP180;6022;48.768;18.608;2024-02-14T11:14:42;99003.34;;;12.04
11926;BMP180;6022;48.768;18.608;2024-02-14T11:17:13;98998.03;;;12.07
11926;BMP180;6022;48.768;18.608;2024-02-14T11:19:41;98988.59;;;12.22
11926;BMP180;6022;48.768;18.608;2024-02-14T11:22:20;98986.94;;;12.21
11926;BMP180;6022;48.768;18.608;2024-02-14T11:24:48;98985.94;;;12.24
11926;BMP180;6022;48.768;18.608;2024-02-14T11:27:18;98980.44;;;12.04
11926;BMP180;6022;48.768;18.608;2024-02-14T11:30:01;98983.06;;;11.88
11926;BMP180;6022;48.768;18.608;2024-02-14T11:32:32;98985.69;;;11.73
11926;BMP180;6022;48.768;18.608;2024-02-14T11:35:00;98978.72;;;11.63
11926;BMP180;6022;48.768;18.608;2024-02-14T11:37:29;98973.25;;;11.55
11926;BMP180;6022;48.768;18.608;2024-02-14T11:40:00;98974.00;;;11.57
11926;BMP180;6022;48.768;18.608;2024-02-14T11:42:28;98977.16;;;11.46
11926;BMP180;6022;48.768;18.608;2024-02-14T11:44:56;98975.47;;;11.61
11926;BMP180;6022;48.768;18.608;2024-02-14T11:47:25;98967.19;;;11.57
11926;BMP180;6022;48.768;18.608;2024-02-14T11:49:53;98964.13;;;11.66
11926;BMP180;6022;48.768;18.608;2024-02-14T11:52:24;98961.94;;;11.74
11926;BMP180;6022;48.768;18.608;2024-02-14T11:54:57;98953.66;;;11.84
11926;BMP180;6022;48.768;18.608;2024-02-14T11:57:27;98946.94;;;11.83
11926;BMP180;6022;48.768;18.608;2024-02-14T11:59:57;98945.13;;;11.85
11926;BMP180;6022;48.768;18.608;2024-02-14T12:02:25;98943.88;;;11.92
11926;BMP180;6022;48.768;18.608;2024-02-14T12:04:53;98943.78;;;11.80
11926;BMP180;6022;48.768;18.608;2024-02-14T12:07:23;98947.56;;;11.73
11926;BMP180;6022;48.768;18.608;2024-02-14T12:09:52;98953.97;;;11.66
11926;BMP180;6022;48.768;18.608;2024-02-14T12:12:23;98944.75;;;11.64
11926;BMP180;6022;48.768;18.608;2024-02-14T12:14:53;98944.41;;;11.69
11926;BMP180;6022;48.768;18.608;2024-02-14T12:17:21;98947.78;;;11.70
11926;BMP180;6022;48.768;18.608;2024-02-14T12:19:51;98926.78;;;11.53
11926;BMP180;6022;48.768;18.608;2024-02-14T12:22:20;98935.59;;;11.61
11926;BMP180;6022;48.768;18.608;2024-02-14T12:24:48;98945.22;;;11.56
11926;BMP180;6022;48.768;18.608;2024-02-14T12:27:21;98932.97;;;11.63
11926;BMP180;6022;48.768;18.608;2024-02-14T12:29:51;98932.31;;;11.73
11926;BMP180;6022;48.768;18.608;2024-02-14T12:32:22;98933.97;;;11.74
11926;BMP180;6022;48.768;18.608;2024-02-14T12:34:49;98932.69;;;11.81
11926;BMP180;6022;48.768;18.608;2024-02-14T12:37:17;98929.88;;;11.85
11926;BMP180;6022;48.768;18.608;2024-02-14T12:39:46;98924.88;;;11.84
11926;BMP180;6022;48.768;18.608;2024-02-14T12:42:14;98922.03;;;11.88
11926;BMP180;6022;48.768;18.608;2024-02-14T12:44:42;98931.06;;;11.80
11926;BMP180;6022;48.768;18.608;2024-02-14T12:47:11;98926.69;;;11.82
11926;BMP180;6022;48.768;18.608;2024-02-14T12:49:38;98918.19;;;11.83
11926;BMP180;6022;48.768;18.608;2024-02-14T12:52:06;98923.97;;;11.71
11926;BMP180;6022;48.768;18.608;2024-02-14T12:54:33;98921.06;;;11.77
11926;BMP180;6022;48.768;18.608;2024-02-14T12:57:01;98919.81;;;11.70
11926;BMP180;6022;48.768;18.608;2024-02-14T12:59:29;98922.19;;;11.59
11926;BMP180;6022;48.768;18.608;2024-02-14T13:01:57;98918.53;;;11.63
11926;BMP180;6022;48.768;18.608;2024-02-14T13:04:25;98927.06;;;11.62
11926;BMP180;6022;48.768;18.608;2024-02-14T13:06:54;98915.09;;;11.64
11926;BMP180;6022;48.768;18.608;2024-02-14T13:09:21;98917.44;;;11.67
11926;BMP180;6022;48.768;18.608;2024-02-14T13:11:51;98916.00;;;11.63
11926;BMP180;6022;48.768;18.608;2024-02-14T13:14:20;98910.38;;;11.58
11926;BMP180;6022;48.768;18.608;2024-02-14T13:16:48;98908.47;;;11.48
11926;BMP180;6022;48.768;18.608;2024-02-14T13:19:16;98904.47;;;11.58
11926;BMP180;6022;48.768;18.608;2024-02-14T13:21:46;98894.94;;;11.61
11926;BMP180;6022;48.768;18.608;2024-02-14T13:24:15;98907.56;;;11.63
11926;BMP180;6022;48.768;18.608;2024-02-14T13:26:44;98899.50;;;11.70
11926;BMP180;6022;48.768;18.608;2024-02-14T13:29:12;98909.66;;;11.70
11926;BMP180;6022;48.768;18.608;2024-02-14T13:31:40;98898.13;;;11.51
11926;BMP180;6022;48.768;18.608;2024-02-14T13:34:08;98911.81;;;11.34
11926;BMP180;6022;48.768;18.608;2024-02-14T13:36:37;98903.06;;;11.25
11926;BMP180;6022;48.768;18.608;2024-02-14T13:39:04;98905.00;;;11.21
11926;BMP180;6022;48.768;18.608;2024-02-14T13:41:33;98911.59;;;11.24
11926;BMP180;6022;48.768;18.608;2024-02-14T13:44:01;98909.59;;;11.15
11926;BMP180;6022;48.768;18.608;2024-02-14T13:46:32;98907.13;;;11.13
11926;BMP180;6022;48.768;18.608;2024-02-14T13:49:01;98910.41;;;11.15
11926;BMP180;6022;48.768;18.608;2024-02-14T13:51:29;98911.94;;;11.04
11926;BMP180;6022;48.768;18.608;2024-02-14T13:53:56;98896.25;;;10.97
11926;BMP180;6022;48.768;18.608;2024-02-14T13:56:25;98895.94;;;10.88
11926;BMP180;6022;48.768;18.608;2024-02-14T13:58:54;98898.94;;;10.94
11926;BMP180;6022;48.768;18.608;2024-02-14T14:01:23;98909.72;;;10.84
11926;BMP180;6022;48.768;18.608;2024-02-14T14:03:54;98903.66;;;10.87
11926;BMP180;6022;48.768;18.608;2024-02-14T14:06:32;98907.41;;;10.95
11926;BMP180;6022;48.768;18.608;2024-02-14T14:09:06;98903.50;;;11.03
11926;BMP180;6022;48.768;18.608;2024-02-14T14:11:38;98903.41;;;11.05
11926;BMP180;6022;48.768;18.608;2024-02-14T14:14:06;98905.59;;;11.11
11926;BMP180;6022;48.768;18.608;2024-02-14T14:16:35;98908.59;;;11.17
11926;BMP180;6022;48.768;18.608;2024-02-14T14:19:06;98904.88;;;11.09
11926;BMP180;6022;48.768;18.608;2024-02-14T14:21:36;98896.03;;;11.00
11926;BMP180;6022;48.768;18.608;2024-02-14T14:24:06;98899.78;;;10.95